createdAt,value
2023-02-16T00:11:33.945Z,1020.71
2023-02-16T00:26:35.030Z,1020.74
2023-02-16T00:41:35.301Z,1020.75
2023-02-16T00:56:35.787Z,1020.77
2023-02-16T01:11:36.412Z,1020.63
2023-02-16T01:26:37.011Z,1020.49
2023-02-16T01:41:37.637Z,1020.39
2023-02-16T01:56:38.245Z,1020.43
2023-02-16T02:11:40.143Z,1020.32
2023-02-16T02:26:40.752Z,1020.19
2023-02-16T02:41:41.425Z,1020.13
2023-02-16T02:56:41.976Z,1019.95
2023-02-16T03:11:45.201Z,1020.05
2023-02-16T03:26:47.716Z,1019.87
2023-02-16T03:41:48.250Z,1019.84
2023-02-16T03:56:48.529Z,1019.76
2023-02-16T04:11:49.077Z,1019.79
2023-02-16T04:26:49.901Z,1019.84
2023-02-16T04:41:50.743Z,1019.74
2023-02-16T04:56:51.389Z,1019.73
2023-02-16T05:11:51.572Z,1019.74
2023-02-16T05:26:51.907Z,1019.82
2023-02-16T05:41:52.802Z,1019.88
2023-02-16T05:56:53.010Z,1019.81
2023-02-16T06:11:53.629Z,1019.95
2023-02-16T06:26:54.671Z,1019.89
2023-02-16T06:41:54.831Z,1019.89
2023-02-16T06:56:55.861Z,1020.08
2023-02-16T07:11:56.436Z,1019.94
2023-02-16T07:26:57.112Z,1019.86
2023-02-16T07:41:58.530Z,1019.95
2023-02-16T07:56:59.178Z,1020.18
2023-02-16T08:11:59.757Z,1020.24
2023-02-16T08:27:00.360Z,1020.09
2023-02-16T08:42:01.377Z,1020.14
2023-02-16T08:57:01.594Z,1020.14
2023-02-16T09:12:02.147Z,1020.04
2023-02-16T09:27:04.073Z,1020.09
2023-02-16T09:42:05.071Z,1020.03
2023-02-16T09:57:05.330Z,1020.13
2023-02-16T10:12:05.876Z,1020.02
2023-02-16T10:27:06.481Z,1019.98
2023-02-16T10:42:07.075Z,1019.89
2023-02-16T10:57:08.163Z,1019.91
2023-02-16T11:12:08.283Z,1019.56
2023-02-16T11:27:09.332Z,1019.54
2023-02-16T11:42:09.889Z,1019.44
2023-02-16T11:57:11.785Z,1019.45
2023-02-16T12:12:12.361Z,1019.44
2023-02-16T12:27:12.962Z,1019.22
2023-02-16T12:42:13.139Z,1019.21
2023-02-16T12:57:13.736Z,1019.17
2023-02-16T13:12:14.327Z,1018.93
2023-02-16T13:27:14.943Z,1018.87
2023-02-16T13:42:15.949Z,1018.69
2023-02-16T13:57:16.544Z,1018.71
2023-02-16T14:12:17.131Z,1018.64
2023-02-16T14:27:17.810Z,1018.64
2023-02-16T14:42:17.946Z,1018.61
2023-02-16T14:57:18.938Z,1018.59
2023-02-16T15:12:20.128Z,1018.64
2023-02-16T15:27:20.865Z,1018.47
2023-02-16T15:42:22.403Z,1018.31
2023-02-16T15:57:22.518Z,1018.21
2023-02-16T16:12:24.161Z,1018.06
2023-02-16T16:27:24.724Z,1018.05
2023-02-16T16:42:25.352Z,1017.84
2023-02-16T16:57:25.937Z,1017.65
2023-02-16T17:12:26.949Z,1017.88
2023-02-16T17:27:27.555Z,1017.94
2023-02-16T17:42:28.293Z,1017.94
2023-02-16T17:57:29.365Z,1017.92
2023-02-16T18:12:31.492Z,1018.00
2023-02-16T18:27:32.246Z,1018.09
2023-02-16T18:42:32.462Z,1017.85
2023-02-16T18:57:33.123Z,1017.81
2023-02-16T19:12:33.676Z,1017.86
2023-02-16T19:27:34.663Z,1017.94
2023-02-16T19:42:35.287Z,1017.92
2023-02-16T19:57:35.463Z,1017.83
2023-02-16T20:12:36.107Z,1017.88
2023-02-16T20:27:36.695Z,1017.69
2023-02-16T20:42:37.286Z,1017.53
2023-02-16T20:57:37.873Z,1017.40
2023-02-16T21:12:38.932Z,1017.39
2023-02-16T21:27:39.477Z,1017.31
2023-02-16T21:42:40.092Z,1016.90
2023-02-16T21:57:40.693Z,1016.94
2023-02-16T22:12:41.307Z,1016.73
2023-02-16T22:27:41.931Z,1016.73
2023-02-16T22:42:42.562Z,1016.70
2023-02-16T22:57:43.524Z,1016.66
2023-02-16T23:12:44.349Z,1016.54
2023-02-16T23:27:45.338Z,1016.42
2023-02-16T23:42:45.510Z,1016.41
2023-02-16T23:57:46.087Z,1016.41
